Time,TemperatureF,DewpointF,PressureIn,WindDirection,WindDirectionDegrees,WindSpeedMPH,WindSpeedGustMPH,Humidity,HourlyPrecipIn,Conditions,Clouds,dailyrainin,SolarRadiationWatts/m^2,SoftwareType,DateUTC
2013-05-14 00:03:00,48.0,38.0,-100.00,SSW,196,0.0,0.0,69,0.00,,,0.00,0.000000,,2013-05-14 04:03:00,
2013-05-14 00:13:00,48.0,38.0,-100.00,SSW,196,0.0,0.0,69,0.00,,,0.00,0.000000,,2013-05-14 04:13:00,
2013-05-14 00:33:00,45.0,41.0,-100.00,NNW,336,1.0,3.0,86,0.00,,,0.00,0.000000,,2013-05-14 04:33:00,
2013-05-14 00:43:00,45.0,41.0,-100.00,NNW,336,1.0,3.0,86,0.00,,,0.00,0.000000,,2013-05-14 04:43:00,
2013-05-14 00:53:00,45.0,41.0,-100.00,NNW,336,1.0,3.0,86,0.00,,,0.00,0.000000,,2013-05-14 04:53:00,
2013-05-14 01:02:00,45.0,41.0,-100.00,NNW,336,1.0,3.0,86,0.00,,,0.00,0.000000,,2013-05-14 05:02:00,
2013-05-14 01:12:00,45.0,41.0,-100.00,NNW,336,1.0,3.0,86,0.00,,,0.00,0.000000,,2013-05-14 05:12:00,
2013-05-14 01:32:00,51.0,46.0,-100.00,NE,42,4.0,7.0,84,0.00,,,0.00,0.000000,,2013-05-14 05:32:00,
2013-05-14 01:42:00,51.0,46.0,-100.00,NE,42,4.0,7.0,84,0.00,,,0.00,0.000000,,2013-05-14 05:42:00,
2013-05-14 01:52:00,51.0,46.0,-100.00,NE,42,4.0,7.0,84,0.00,,,0.00,0.000000,,2013-05-14 05:52:00,
2013-05-14 02:01:00,51.0,46.0,-100.00,NE,42,4.0,7.0,84,0.00,,,0.00,0.000000,,2013-05-14 06:01:00,
2013-05-14 02:13:00,51.0,46.0,-100.00,NE,42,4.0,7.0,84,0.00,,,0.00,0.000000,,2013-05-14 06:13:00,
2013-05-14 02:42:00,51.0,37.0,-100.00,NNE,26,3.0,6.0,59,0.00,,,0.00,0.000000,,2013-05-14 06:42:00,
2013-05-14 02:52:00,51.0,37.0,-100.00,NNE,26,3.0,6.0,59,0.00,,,0.00,0.000000,,2013-05-14 06:52:00,
2013-05-14 03:02:00,51.0,37.0,-100.00,NNE,26,3.0,6.0,59,0.00,,,0.00,0.000000,,2013-05-14 07:02:00,
2013-05-14 03:11:00,51.0,37.0,-100.00,NNE,26,3.0,6.0,59,0.00,,,0.00,0.000000,,2013-05-14 07:11:00,
2013-05-14 03:42:00,46.0,40.0,-100.00,NNW,327,2.0,4.0,78,0.00,,,0.00,0.000000,,2013-05-14 07:42:00,
2013-05-14 03:52:00,46.0,40.0,-100.00,NNW,327,2.0,4.0,78,0.00,,,0.00,0.000000,,2013-05-14 07:52:00,
2013-05-14 04:02:00,46.0,40.0,-100.00,NNW,327,2.0,4.0,78,0.00,,,0.00,0.000000,,2013-05-14 08:02:00,
2013-05-14 04:11:00,46.0,40.0,-100.00,NNW,327,2.0,4.0,78,0.00,,,0.00,0.000000,,2013-05-14 08:11:00,
2013-05-14 04:42:00,45.0,39.0,-100.00,SSW,196,1.0,4.0,80,0.00,,,0.00,0.000000,,2013-05-14 08:42:00,
2013-05-14 04:52:00,45.0,39.0,-100.00,SSW,196,1.0,4.0,80,0.00,,,0.00,0.000000,,2013-05-14 08:52:00,
2013-05-14 05:02:00,45.0,39.0,-100.00,SSW,196,1.0,4.0,80,0.00,,,0.00,0.000000,,2013-05-14 09:02:00,
2013-05-14 05:11:00,45.0,39.0,-100.00,SSW,196,1.0,4.0,80,0.00,,,0.00,0.000000,,2013-05-14 09:11:00,
2013-05-14 05:44:00,42.0,39.0,-100.00,NW,312,2.0,4.0,89,0.00,,,0.00,0.000000,,2013-05-14 09:44:00,
2013-05-14 05:54:00,42.0,39.0,-100.00,NW,312,2.0,4.0,89,0.00,,,0.00,0.000000,,2013-05-14 09:54:00,
2013-05-14 06:05:00,42.0,39.0,-100.00,NW,312,2.0,4.0,89,0.00,,,0.00,0.000000,,2013-05-14 10:05:00,
2013-05-14 06:14:00,42.0,39.0,-100.00,NW,312,2.0,4.0,89,0.00,,,0.00,0.000000,,2013-05-14 10:14:00,
2013-05-14 06:33:00,40.0,38.0,-100.00,NW,307,2.0,3.0,92,0.00,,,0.00,2.000000,,2013-05-14 10:33:00,
2013-05-14 06:42:00,40.0,38.0,-100.00,NW,307,2.0,3.0,92,0.00,,,0.00,2.000000,,2013-05-14 10:42:00,
2013-05-14 06:53:00,40.0,38.0,-100.00,NW,307,2.0,3.0,92,0.00,,,0.00,2.000000,,2013-05-14 10:53:00,
2013-05-14 07:03:00,40.0,38.0,-100.00,NW,307,2.0,3.0,92,0.00,,,0.00,2.000000,,2013-05-14 11:03:00,
2013-05-14 07:11:00,40.0,38.0,-100.00,NW,307,2.0,3.0,92,0.00,,,0.00,2.000000,,2013-05-14 11:11:00,
2013-05-14 07:32:00,42.0,40.0,-100.00,NW,314,2.0,3.0,92,0.00,,,0.00,42.000000,,2013-05-14 11:32:00,
2013-05-14 07:43:00,42.0,40.0,-100.00,NW,314,2.0,3.0,92,0.00,,,0.00,42.000000,,2013-05-14 11:43:00,
2013-05-14 07:53:00,42.0,40.0,-100.00,NW,314,2.0,3.0,92,0.00,,,0.00,42.000000,,2013-05-14 11:53:00,
2013-05-14 08:03:00,42.0,40.0,-100.00,NW,314,2.0,3.0,92,0.00,,,0.00,42.000000,,2013-05-14 12:03:00,
2013-05-14 08:12:00,42.0,40.0,-100.00,NW,314,2.0,3.0,92,0.00,,,0.00,42.000000,,2013-05-14 12:12:00,
2013-05-14 08:42:00,55.0,46.0,-100.00,North,4,4.0,7.0,71,0.00,,,0.00,216.000000,,2013-05-14 12:42:00,
2013-05-14 08:52:00,55.0,46.0,-100.00,North,4,4.0,7.0,71,0.00,,,0.00,216.000000,,2013-05-14 12:52:00,
2013-05-14 09:01:00,55.0,46.0,-100.00,North,4,4.0,7.0,71,0.00,,,0.00,216.000000,,2013-05-14 13:01:00,
2013-05-14 09:11:00,55.0,46.0,-100.00,North,4,4.0,7.0,71,0.00,,,0.00,216.000000,,2013-05-14 13:11:00,
2013-05-14 09:42:00,60.0,39.0,-100.00,North,11,5.0,9.0,45,0.00,,,0.00,519.000000,,2013-05-14 13:42:00,
2013-05-14 09:52:00,60.0,39.0,-100.00,North,11,5.0,9.0,45,0.00,,,0.00,519.000000,,2013-05-14 13:52:00,
2013-05-14 10:01:00,60.0,39.0,-100.00,North,11,5.0,9.0,45,0.00,,,0.00,519.000000,,2013-05-14 14:01:00,
2013-05-14 10:11:00,60.0,39.0,-100.00,North,11,5.0,9.0,45,0.00,,,0.00,519.000000,,2013-05-14 14:11:00,
2013-05-14 10:32:00,63.0,36.0,-100.00,West,267,3.0,8.0,37,0.00,,,0.00,718.000000,,2013-05-14 14:32:00,
2013-05-14 10:42:00,63.0,36.0,-100.00,West,267,3.0,8.0,37,0.00,,,0.00,718.000000,,2013-05-14 14:42:00,
2013-05-14 10:53:00,63.0,36.0,-100.00,West,267,3.0,8.0,37,0.00,,,0.00,718.000000,,2013-05-14 14:53:00,
2013-05-14 11:01:00,63.0,36.0,-100.00,West,267,3.0,8.0,37,0.00,,,0.00,718.000000,,2013-05-14 15:01:00,
2013-05-14 11:12:00,63.0,36.0,-100.00,West,267,3.0,8.0,37,0.00,,,0.00,718.000000,,2013-05-14 15:12:00,
2013-05-14 11:43:00,65.0,32.0,-100.00,NW,326,7.0,12.0,29,0.00,,,0.00,867.000000,,2013-05-14 15:43:00,
2013-05-14 11:53:00,65.0,32.0,-100.00,NW,326,7.0,12.0,29,0.00,,,0.00,867.000000,,2013-05-14 15:53:00,
2013-05-14 12:02:00,65.0,32.0,-100.00,NW,326,7.0,12.0,29,0.00,,,0.00,867.000000,,2013-05-14 16:02:00,
2013-05-14 12:12:00,65.0,32.0,-100.00,NW,326,7.0,12.0,29,0.00,,,0.00,867.000000,,2013-05-14 16:12:00,
2013-05-14 12:44:00,67.0,34.0,-100.00,North,2,8.0,15.0,29,0.00,,,0.00,977.000000,,2013-05-14 16:44:00,
2013-05-14 12:54:00,67.0,34.0,-100.00,North,2,8.0,15.0,29,0.00,,,0.00,977.000000,,2013-05-14 16:54:00,
2013-05-14 13:03:00,67.0,34.0,-100.00,North,2,8.0,15.0,29,0.00,,,0.00,977.000000,,2013-05-14 17:03:00,
2013-05-14 13:13:00,67.0,34.0,-100.00,North,2,8.0,15.0,29,0.00,,,0.00,977.000000,,2013-05-14 17:13:00,
2013-05-14 13:33:00,68.0,33.0,-100.00,NW,313,8.0,16.0,27,0.00,,,0.00,1028.000000,,2013-05-14 17:33:00,
2013-05-14 13:43:00,68.0,33.0,-100.00,NW,313,8.0,16.0,27,0.00,,,0.00,1028.000000,,2013-05-14 17:43:00,
2013-05-14 13:52:00,68.0,33.0,-100.00,NW,313,8.0,16.0,27,0.00,,,0.00,1028.000000,,2013-05-14 17:52:00,
2013-05-14 14:02:00,68.0,33.0,-100.00,NW,313,8.0,16.0,27,0.00,,,0.00,1028.000000,,2013-05-14 18:02:00,
2013-05-14 14:12:00,68.0,33.0,-100.00,NW,313,8.0,16.0,27,0.00,,,0.00,1028.000000,,2013-05-14 18:12:00,
2013-05-14 14:42:00,69.0,32.0,-100.00,NW,309,7.0,14.0,25,0.00,,,0.00,1010.000000,,2013-05-14 18:42:00,
2013-05-14 14:52:00,69.0,32.0,-100.00,NW,309,7.0,14.0,25,0.00,,,0.00,1010.000000,,2013-05-14 18:52:00,
2013-05-14 15:02:00,69.0,32.0,-100.00,NW,309,7.0,14.0,25,0.00,,,0.00,1010.000000,,2013-05-14 19:02:00,
2013-05-14 15:12:00,69.0,32.0,-100.00,NW,309,7.0,14.0,25,0.00,,,0.00,1010.000000,,2013-05-14 19:12:00,
2013-05-14 15:42:00,71.0,32.0,-100.00,WNW,293,7.0,13.0,24,0.00,,,0.00,934.000000,,2013-05-14 19:42:00,
2013-05-14 15:53:00,71.0,32.0,-100.00,WNW,293,7.0,13.0,24,0.00,,,0.00,934.000000,,2013-05-14 19:53:00,
2013-05-14 16:02:00,71.0,32.0,-100.00,WNW,293,7.0,13.0,24,0.00,,,0.00,934.000000,,2013-05-14 20:02:00,
2013-05-14 16:11:00,71.0,32.0,-100.00,WNW,293,7.0,13.0,24,0.00,,,0.00,934.000000,,2013-05-14 20:11:00,
2013-05-14 16:44:00,72.0,33.0,-100.00,West,266,5.0,12.0,24,0.00,,,0.00,804.000000,,2013-05-14 20:44:00,
2013-05-14 16:52:00,72.0,33.0,-100.00,West,266,5.0,12.0,24,0.00,,,0.00,804.000000,,2013-05-14 20:52:00,
2013-05-14 17:03:00,72.0,33.0,-100.00,West,266,5.0,12.0,24,0.00,,,0.00,804.000000,,2013-05-14 21:03:00,
2013-05-14 17:12:00,72.0,33.0,-100.00,West,266,5.0,12.0,24,0.00,,,0.00,804.000000,,2013-05-14 21:12:00,
2013-05-14 17:43:00,67.0,42.0,-100.00,South,189,9.0,16.0,40,0.00,,,0.00,585.000000,,2013-05-14 21:43:00,
2013-05-14 17:53:00,67.0,42.0,-100.00,South,189,9.0,16.0,40,0.00,,,0.00,585.000000,,2013-05-14 21:53:00,
2013-05-14 18:03:00,67.0,42.0,-100.00,South,189,9.0,16.0,40,0.00,,,0.00,585.000000,,2013-05-14 22:03:00,
2013-05-14 18:13:00,67.0,42.0,-100.00,South,189,9.0,16.0,40,0.00,,,0.00,585.000000,,2013-05-14 22:13:00,
2013-05-14 18:45:00,65.0,41.0,-100.00,South,186,6.0,15.0,41,0.00,,,0.00,231.000000,,2013-05-14 22:45:00,
2013-05-14 18:55:00,65.0,41.0,-100.00,South,186,6.0,15.0,41,0.00,,,0.00,231.000000,,2013-05-14 22:55:00,
2013-05-14 19:03:00,65.0,41.0,-100.00,South,186,6.0,15.0,41,0.00,,,0.00,231.000000,,2013-05-14 23:03:00,
2013-05-14 19:12:00,65.0,41.0,-100.00,South,186,6.0,15.0,41,0.00,,,0.00,231.000000,,2013-05-14 23:12:00,
2013-05-14 19:44:00,64.0,43.0,-100.00,SSW,193,5.0,16.0,47,0.00,,,0.00,86.000000,,2013-05-14 23:44:00,
2013-05-14 19:53:00,64.0,43.0,-100.00,SSW,193,5.0,16.0,47,0.00,,,0.00,86.000000,,2013-05-14 23:53:00,
2013-05-14 20:02:00,64.0,43.0,-100.00,SSW,193,5.0,16.0,47,0.00,,,0.00,86.000000,,2013-05-15 00:02:00,
2013-05-14 20:11:00,64.0,43.0,-100.00,SSW,193,5.0,16.0,47,0.00,,,0.00,86.000000,,2013-05-15 00:11:00,
2013-05-14 20:42:00,60.0,43.0,-100.00,South,183,4.0,10.0,54,0.00,,,0.00,14.000000,,2013-05-15 00:42:00,
2013-05-14 20:52:00,60.0,43.0,-100.00,South,183,4.0,10.0,54,0.00,,,0.00,14.000000,,2013-05-15 00:52:00,
2013-05-14 21:01:00,60.0,43.0,-100.00,South,183,4.0,10.0,54,0.00,,,0.00,14.000000,,2013-05-15 01:01:00,
2013-05-14 21:11:00,60.0,43.0,-100.00,South,183,4.0,10.0,54,0.00,,,0.00,14.000000,,2013-05-15 01:11:00,
2013-05-14 21:32:00,59.0,45.0,-100.00,South,188,3.0,7.0,59,0.00,,,0.00,0.000000,,2013-05-15 01:32:00,
2013-05-14 21:42:00,59.0,45.0,-100.00,South,188,3.0,7.0,59,0.00,,,0.00,0.000000,,2013-05-15 01:42:00,
2013-05-14 21:52:00,59.0,45.0,-100.00,South,188,3.0,7.0,59,0.00,,,0.00,0.000000,,2013-05-15 01:52:00,
2013-05-14 22:02:00,59.0,45.0,-100.00,South,188,3.0,7.0,59,0.00,,,0.00,0.000000,,2013-05-15 02:02:00,
2013-05-14 22:11:00,59.0,45.0,-100.00,South,188,3.0,7.0,59,0.00,,,0.00,0.000000,,2013-05-15 02:11:00,
2013-05-14 22:32:00,56.0,44.0,-100.00,South,184,3.0,5.0,63,0.00,,,0.00,0.000000,,2013-05-15 02:32:00,
2013-05-14 22:42:00,56.0,44.0,-100.00,South,184,3.0,5.0,63,0.00,,,0.00,0.000000,,2013-05-15 02:42:00,
2013-05-14 22:52:00,56.0,44.0,-100.00,South,184,3.0,5.0,63,0.00,,,0.00,0.000000,,2013-05-15 02:52:00,
2013-05-14 23:01:00,56.0,44.0,-100.00,South,184,3.0,5.0,63,0.00,,,0.00,0.000000,,2013-05-15 03:01:00,
2013-05-14 23:13:00,56.0,44.0,-100.00,South,184,3.0,5.0,63,0.00,,,0.00,0.000000,,2013-05-15 03:13:00,
2013-05-14 23:44:00,55.0,46.0,-100.00,South,169,2.0,5.0,71,0.00,,,0.00,0.000000,,2013-05-15 03:44:00,
2013-05-14 23:54:00,55.0,46.0,-100.00,South,169,2.0,5.0,71,0.00,,,0.00,0.000000,,2013-05-15 03:54:00,